sensor_id;sensor_type;location;lat;lon;timestamp;pressure;altitude;pressure_sealevel;temperature;humidity
63708;BME280;67643;-34.198;22.084;2023-02-19T00:01:44;99590.85;;;21.30;50.38
63708;BME280;67643;-34.198;22.084;2023-02-19T00:04:15;99590.58;;;21.22;50.41
63708;BME280;67643;-34.198;22.084;2023-02-19T00:06:45;99583.37;;;20.98;50.39
63708;BME280;67643;-34.198;22.084;2023-02-19T00:09:16;99581.23;;;21.11;50.63
63708;BME280;67643;-34.198;22.084;2023-02-19T00:11:46;99577.13;;;21.16;50.52
63708;BME280;67643;-34.198;22.084;2023-02-19T00:14:17;99573.61;;;21.11;50.21
63708;BME280;67643;-34.198;22.084;2023-02-19T00:16:46;99567.40;;;21.05;50.63
63708;BME280;67643;-34.198;22.084;2023-02-19T00:19:17;99557.77;;;21.58;49.54
63708;BME280;67643;-34.198;22.084;2023-02-19T00:21:47;99550.58;;;21.24;50.12
63708;BME280;67643;-34.198;22.084;2023-02-19T00:24:17;99544.50;;;21.15;50.27
63708;BME280;67643;-34.198;22.084;2023-02-19T00:26:46;99538.92;;;21.18;49.77
63708;BME280;67643;-34.198;22.084;2023-02-19T00:29:18;99536.31;;;21.04;50.41
63708;BME280;67643;-34.198;22.084;2023-02-19T00:31:47;99531.23;;;21.68;49.76
63708;BME280;67643;-34.198;22.084;2023-02-19T00:34:16;99527.71;;;21.05;50.22
63708;BME280;67643;-34.198;22.084;2023-02-19T00:36:44;99526.12;;;20.98;50.30
63708;BME280;67643;-34.198;22.084;2023-02-19T00:39:14;99520.26;;;21.25;49.86
63708;BME280;67643;-34.198;22.084;2023-02-19T00:41:43;99515.96;;;20.83;50.49
63708;BME280;67643;-34.198;22.084;2023-02-19T00:44:12;99512.73;;;20.93;50.23
63708;BME280;67643;-34.198;22.084;2023-02-19T00:46:42;99508.25;;;21.02;50.00
63708;BME280;67643;-34.198;22.084;2023-02-19T00:49:16;99502.81;;;20.71;50.20
63708;BME280;67643;-34.198;22.084;2023-02-19T00:51:46;99499.39;;;20.93;50.15
63708;BME280;67643;-34.198;22.084;2023-02-19T00:54:15;99492.87;;;21.56;49.46
63708;BME280;67643;-34.198;22.084;2023-02-19T00:56:43;99492.03;;;20.64;50.66
63708;BME280;67643;-34.198;22.084;2023-02-19T00:59:12;99485.70;;;20.78;50.39
63708;BME280;67643;-34.198;22.084;2023-02-19T01:01:41;99481.88;;;20.73;50.40
63708;BME280;67643;-34.198;22.084;2023-02-19T01:04:10;99477.68;;;20.84;50.63
63708;BME280;67643;-34.198;22.084;2023-02-19T01:06:39;99471.06;;;20.65;50.36
63708;BME280;67643;-34.198;22.084;2023-02-19T01:09:07;99470.50;;;20.54;50.50
63708;BME280;67643;-34.198;22.084;2023-02-19T01:11:36;99464.00;;;21.00;50.23
63708;BME280;67643;-34.198;22.084;2023-02-19T01:14:04;99462.23;;;20.63;50.49
63708;BME280;67643;-34.198;22.084;2023-02-19T01:16:34;99457.98;;;20.41;50.86
63708;BME280;67643;-34.198;22.084;2023-02-19T01:19:02;99454.13;;;20.98;50.33
63708;BME280;67643;-34.198;22.084;2023-02-19T01:21:31;99448.68;;;20.14;51.50
63708;BME280;67643;-34.198;22.084;2023-02-19T01:23:59;99447.25;;;20.76;50.79
63708;BME280;67643;-34.198;22.084;2023-02-19T01:26:29;99442.73;;;19.75;51.62
63708;BME280;67643;-34.198;22.084;2023-02-19T01:28:59;99441.60;;;20.50;51.03
63708;BME280;67643;-34.198;22.084;2023-02-19T01:31:28;99437.32;;;20.31;51.46
63708;BME280;67643;-34.198;22.084;2023-02-19T01:33:58;99434.72;;;20.44;51.15
63708;BME280;67643;-34.198;22.084;2023-02-19T01:36:28;99431.96;;;20.33;50.77
63708;BME280;67643;-34.198;22.084;2023-02-19T01:39:00;99429.15;;;20.42;50.76
63708;BME280;67643;-34.198;22.084;2023-02-19T01:41:28;99426.82;;;20.57;50.55
63708;BME280;67643;-34.198;22.084;2023-02-19T01:44:00;99425.09;;;20.23;50.62
63708;BME280;67643;-34.198;22.084;2023-02-19T01:46:29;99419.30;;;20.70;49.82
63708;BME280;67643;-34.198;22.084;2023-02-19T01:49:01;99416.57;;;20.21;50.79
63708;BME280;67643;-34.198;22.084;2023-02-19T01:51:31;99413.24;;;20.33;50.51
63708;BME280;67643;-34.198;22.084;2023-02-19T01:54:03;99406.35;;;20.44;50.60
63708;BME280;67643;-34.198;22.084;2023-02-19T01:56:34;99408.01;;;20.26;50.34
63708;BME280;67643;-34.198;22.084;2023-02-19T01:59:04;99405.01;;;20.09;50.65
63708;BME280;67643;-34.198;22.084;2023-02-19T04:23:44;99316.26;;;17.40;63.79
63708;BME280;67643;-34.198;22.084;2023-02-19T04:26:14;99315.68;;;18.46;58.24
63708;BME280;67643;-34.198;22.084;2023-02-19T04:28:45;99316.36;;;20.00;54.88
63708;BME280;67643;-34.198;22.084;2023-02-19T04:31:13;99316.29;;;20.48;52.61
63708;BME280;67643;-34.198;22.084;2023-02-19T04:33:41;99312.75;;;20.22;52.10
63708;BME280;67643;-34.198;22.084;2023-02-19T04:36:11;99316.44;;;20.77;51.01
63708;BME280;67643;-34.198;22.084;2023-02-19T04:38:39;99311.68;;;20.87;50.26
63708;BME280;67643;-34.198;22.084;2023-02-19T04:41:09;99306.55;;;21.34;49.84
63708;BME280;67643;-34.198;22.084;2023-02-19T04:43:37;99304.27;;;21.47;49.56
63708;BME280;67643;-34.198;22.084;2023-02-19T04:46:06;99302.11;;;21.66;49.26
63708;BME280;67643;-34.198;22.084;2023-02-19T04:48:34;99303.09;;;21.71;48.70
63708;BME280;67643;-34.198;22.084;2023-02-19T04:51:05;99299.38;;;21.80;48.55
63708;BME280;67643;-34.198;22.084;2023-02-19T04:53:33;99301.20;;;21.95;47.99
63708;BME280;67643;-34.198;22.084;2023-02-19T04:56:06;99299.65;;;22.07;47.88
63708;BME280;67643;-34.198;22.084;2023-02-19T04:58:35;99301.15;;;21.93;48.20
63708;BME280;67643;-34.198;22.084;2023-02-19T05:01:04;99300.95;;;22.09;48.06
63708;BME280;67643;-34.198;22.084;2023-02-19T05:03:32;99299.52;;;22.22;47.94
63708;BME280;67643;-34.198;22.084;2023-02-19T05:06:02;99298.89;;;22.31;47.82
63708;BME280;67643;-34.198;22.084;2023-02-19T05:08:30;99298.35;;;22.52;47.62
63708;BME280;67643;-34.198;22.084;2023-02-19T05:11:00;99297.70;;;22.07;48.12
63708;BME280;67643;-34.198;22.084;2023-02-19T05:13:30;99294.07;;;22.32;47.75
63708;BME280;67643;-34.198;22.084;2023-02-19T05:16:01;99294.18;;;22.49;47.91
63708;BME280;67643;-34.198;22.084;2023-02-19T05:18:31;99288.93;;;22.22;48.10
63708;BME280;67643;-34.198;22.084;2023-02-19T05:21:00;99285.23;;;22.63;47.91
63708;BME280;67643;-34.198;22.084;2023-02-19T05:23:29;99283.21;;;22.31;47.75
63708;BME280;67643;-34.198;22.084;2023-02-19T05:25:58;99285.15;;;22.49;48.08
63708;BME280;67643;-34.198;22.084;2023-02-19T05:28:27;99284.08;;;22.58;47.94
63708;BME280;67643;-34.198;22.084;2023-02-19T05:30:56;99284.83;;;22.39;47.90
63708;BME280;67643;-34.198;22.084;2023-02-19T05:33:25;99284.77;;;22.35;48.07
63708;BME280;67643;-34.198;22.084;2023-02-19T05:35:54;99284.96;;;22.53;47.86
63708;BME280;67643;-34.198;22.084;2023-02-19T05:38:23;99285.12;;;22.63;48.18
63708;BME280;67643;-34.198;22.084;2023-02-19T05:40:52;99289.80;;;22.99;48.27
63708;BME280;67643;-34.198;22.084;2023-02-19T05:43:21;99290.87;;;22.61;48.44
63708;BME280;67643;-34.198;22.084;2023-02-19T05:45:49;99290.00;;;22.54;48.71
63708;BME280;67643;-34.198;22.084;2023-02-19T05:48:17;99290.39;;;22.81;48.21
63708;BME280;67643;-34.198;22.084;2023-02-19T05:50:45;99286.39;;;23.14;47.72
63708;BME280;67643;-34.198;22.084;2023-02-19T05:53:14;99288.61;;;22.69;48.56
63708;BME280;67643;-34.198;22.084;2023-02-19T05:55:42;99281.04;;;22.91;48.16
63708;BME280;67643;-34.198;22.084;2023-02-19T05:58:11;99283.37;;;22.94;48.11
63708;BME280;67643;-34.198;22.084;2023-02-19T06:00:39;99280.11;;;22.59;48.72
63708;BME280;67643;-34.198;22.084;2023-02-19T06:03:08;99274.33;;;23.42;47.30
63708;BME280;67643;-34.198;22.084;2023-02-19T06:05:37;99273.07;;;22.71;48.56
63708;BME280;67643;-34.198;22.084;2023-02-19T06:08:05;99274.37;;;23.05;48.03
63708;BME280;67643;-34.198;22.084;2023-02-19T06:10:34;99274.41;;;22.89;48.31
63708;BME280;67643;-34.198;22.084;2023-02-19T06:13:02;99272.47;;;22.61;48.41
63708;BME280;67643;-34.198;22.084;2023-02-19T06:15:30;99272.37;;;22.57;48.43
63708;BME280;67643;-34.198;22.084;2023-02-19T06:17:59;99265.63;;;22.79;48.04
63708;BME280;67643;-34.198;22.084;2023-02-19T06:20:28;99266.24;;;23.11;47.57
63708;BME280;67643;-34.198;22.084;2023-02-19T06:22:57;99263.81;;;23.13;47.33
63708;BME280;67643;-34.198;22.084;2023-02-19T06:25:25;99259.65;;;22.96;47.67
63708;BME280;67643;-34.198;22.084;2023-02-19T06:27:55;99262.92;;;22.90;47.27
63708;BME280;67643;-34.198;22.084;2023-02-19T06:30:23;99262.44;;;23.09;47.01
63708;BME280;67643;-34.198;22.084;2023-02-19T06:32:52;99260.77;;;23.30;47.03
63708;BME280;67643;-34.198;22.084;2023-02-19T06:35:21;99261.39;;;23.11;46.94
63708;BME280;67643;-34.198;22.084;2023-02-19T06:37:49;99259.84;;;23.28;47.52
63708;BME280;67643;-34.198;22.084;2023-02-19T06:40:18;99258.68;;;23.11;47.12
63708;BME280;67643;-34.198;22.084;2023-02-19T06:42:46;99254.30;;;23.49;46.85
63708;BME280;67643;-34.198;22.084;2023-02-19T06:45:16;99251.26;;;23.15;46.95
63708;BME280;67643;-34.198;22.084;2023-02-19T06:47:44;99244.93;;;23.53;46.80
63708;BME280;67643;-34.198;22.084;2023-02-19T06:50:13;99235.14;;;23.36;46.59
63708;BME280;67643;-34.198;22.084;2023-02-19T06:52:41;99233.22;;;23.40;46.74
63708;BME280;67643;-34.198;22.084;2023-02-19T06:55:10;99230.23;;;23.48;46.54
63708;BME280;67643;-34.198;22.084;2023-02-19T06:57:39;99229.62;;;23.35;46.55
63708;BME280;67643;-34.198;22.084;2023-02-19T07:00:09;99226.25;;;23.34;45.90
63708;BME280;67643;-34.198;22.084;2023-02-19T07:02:38;99223.24;;;23.02;46.41
63708;BME280;67643;-34.198;22.084;2023-02-19T07:05:07;99217.44;;;23.22;46.73
63708;BME280;67643;-34.198;22.084;2023-02-19T07:07:35;99208.90;;;23.46;46.36
63708;BME280;67643;-34.198;22.084;2023-02-19T07:10:05;99211.79;;;23.03;46.69
63708;BME280;67643;-34.198;22.084;2023-02-19T07:12:34;99203.80;;;23.35;46.22
63708;BME280;67643;-34.198;22.084;2023-02-19T07:15:03;99200.68;;;23.29;46.55
63708;BME280;67643;-34.198;22.084;2023-02-19T07:17:32;99200.26;;;22.94;46.81
63708;BME280;67643;-34.198;22.084;2023-02-19T07:20:02;99197.42;;;23.29;46.64
63708;BME280;67643;-34.198;22.084;2023-02-19T07:22:31;99193.99;;;23.29;46.62
63708;BME280;67643;-34.198;22.084;2023-02-19T07:25:00;99196.82;;;23.54;46.36
63708;BME280;67643;-34.198;22.084;2023-02-19T07:27:28;99191.77;;;23.23;46.79
63708;BME280;67643;-34.198;22.084;2023-02-19T07:29:58;99183.94;;;23.23;46.72
63708;BME280;67643;-34.198;22.084;2023-02-19T07:32:27;99181.94;;;23.11;46.76
63708;BME280;67643;-34.198;22.084;2023-02-19T07:34:55;99182.44;;;23.13;46.82
63708;BME280;67643;-34.198;22.084;2023-02-19T07:37:23;99179.57;;;23.18;46.62
63708;BME280;67643;-34.198;22.084;2023-02-19T07:39:52;99173.97;;;23.06;46.93
63708;BME280;67643;-34.198;22.084;2023-02-19T07:42:21;99171.47;;;23.07;46.75
63708;BME280;67643;-34.198;22.084;2023-02-19T07:44:49;99171.19;;;23.24;46.56
63708;BME280;67643;-34.198;22.084;2023-02-19T07:47:17;99169.95;;;23.48;45.94
63708;BME280;67643;-34.198;22.084;2023-02-19T07:49:46;99169.27;;;23.33;46.14
63708;BME280;67643;-34.198;22.084;2023-02-19T07:52:14;99166.32;;;22.79;47.05
63708;BME280;67643;-34.198;22.084;2023-02-19T07:54:43;99161.26;;;22.44;47.64
63708;BME280;67643;-34.198;22.084;2023-02-19T07:57:11;99157.89;;;22.69;46.88
63708;BME280;67643;-34.198;22.084;2023-02-19T07:59:40;99159.45;;;22.79;46.95
63708;BME280;67643;-34.198;22.084;2023-02-19T08:02:14;99156.14;;;22.90;46.88
63708;BME280;67643;-34.198;22.084;2023-02-19T08:04:46;99146.31;;;22.55;47.36
63708;BME280;67643;-34.198;22.084;2023-02-19T08:07:14;99146.52;;;23.13;47.01
63708;BME280;67643;-34.198;22.084;2023-02-19T08:09:43;99144.28;;;22.76;47.88
63708;BME280;67643;-34.198;22.084;2023-02-19T08:12:12;99140.28;;;23.02;47.31
63708;BME280;67643;-34.198;22.084;2023-02-19T08:14:40;99135.68;;;23.04;47.13
63708;BME280;67643;-34.198;22.084;2023-02-19T08:17:09;99131.47;;;22.50;47.42
63708;BME280;67643;-34.198;22.084;2023-02-19T08:19:37;99128.13;;;22.72;47.02
63708;BME280;67643;-34.198;22.084;2023-02-19T08:22:05;99127.51;;;22.89;47.43
63708;BME280;67643;-34.198;22.084;2023-02-19T08:24:34;99120.73;;;22.46;47.41
63708;BME280;67643;-34.198;22.084;2023-02-19T08:27:03;99113.39;;;22.48;47.02
63708;BME280;67643;-34.198;22.084;2023-02-19T08:29:32;99112.75;;;22.24;47.90
63708;BME280;67643;-34.198;22.084;2023-02-19T08:32:01;99109.58;;;22.32;47.74
63708;BME280;67643;-34.198;22.084;2023-02-19T08:34:29;99113.54;;;21.84;48.91
63708;BME280;67643;-34.198;22.084;2023-02-19T08:36:58;99114.33;;;21.90;48.94
63708;BME280;67643;-34.198;22.084;2023-02-19T08:39:27;99111.58;;;22.11;48.41
63708;BME280;67643;-34.198;22.084;2023-02-19T08:41:55;99110.56;;;21.29;49.30
63708;BME280;67643;-34.198;22.084;2023-02-19T08:44:23;99106.63;;;22.14;48.29
63708;BME280;67643;-34.198;22.084;2023-02-19T08:46:52;99100.55;;;21.50;49.24
63708;BME280;67643;-34.198;22.084;2023-02-19T08:49:20;99093.48;;;22.36;47.87
63708;BME280;67643;-34.198;22.084;2023-02-19T08:51:48;99089.32;;;22.06;48.01
63708;BME280;67643;-34.198;22.084;2023-02-19T08:54:17;99088.11;;;21.06;49.29
63708;BME280;67643;-34.198;22.084;2023-02-19T08:56:46;99086.58;;;21.73;48.14
63708;BME280;67643;-34.198;22.084;2023-02-19T08:59:15;99081.64;;;21.80;48.04
63708;BME280;67643;-34.198;22.084;2023-02-19T09:01:43;99080.06;;;21.33;49.12
63708;BME280;67643;-34.198;22.084;2023-02-19T09:04:12;99080.09;;;22.58;46.62
63708;BME280;67643;-34.198;22.084;2023-02-19T09:06:42;99074.23;;;22.29;47.79
63708;BME280;67643;-34.198;22.084;2023-02-19T09:09:10;99073.25;;;23.36;46.27
63708;BME280;67643;-34.198;22.084;2023-02-19T09:11:39;99061.83;;;23.77;45.63
63708;BME280;67643;-34.198;22.084;2023-02-19T09:14:08;99058.69;;;22.92;47.94
63708;BME280;67643;-34.198;22.084;2023-02-19T09:17:56;99060.28;;;23.04;46.22
63708;BME280;67643;-34.198;22.084;2023-02-19T09:20:24;99053.24;;;22.74;46.42
63708;BME280;67643;-34.198;22.084;2023-02-19T09:22:57;99050.73;;;22.71;47.18
63708;BME280;67643;-34.198;22.084;2023-02-19T09:25:26;99042.53;;;22.80;46.50
63708;BME280;67643;-34.198;22.084;2023-02-19T09:27:55;99043.31;;;22.69;47.14
63708;BME280;67643;-34.198;22.084;2023-02-19T09:30:23;99038.47;;;22.57;47.65
63708;BME280;67643;-34.198;22.084;2023-02-19T09:32:52;99031.60;;;22.77;47.53
63708;BME280;67643;-34.198;22.084;2023-02-19T09:35:21;99031.88;;;22.91;47.37
63708;BME280;67643;-34.198;22.084;2023-02-19T09:37:49;99028.82;;;23.25;47.13
63708;BME280;67643;-34.198;22.084;2023-02-19T09:40:18;99024.19;;;22.63;47.84
63708;BME280;67643;-34.198;22.084;2023-02-19T09:42:48;99019.03;;;22.89;48.01
63708;BME280;67643;-34.198;22.084;2023-02-19T09:45:22;99015.76;;;22.60;48.26
63708;BME280;67643;-34.198;22.084;2023-02-19T09:47:54;99011.60;;;23.10;47.20
63708;BME280;67643;-34.198;22.084;2023-02-19T09:50:31;99003.66;;;22.67;47.19
63708;BME280;67643;-34.198;22.084;2023-02-19T09:53:03;98997.48;;;22.84;47.79
63708;BME280;67643;-34.198;22.084;2023-02-19T09:55:35;98995.89;;;22.94;47.37
63708;BME280;67643;-34.198;22.084;2023-02-19T09:58:21;98994.48;;;22.86;47.31
63708;BME280;67643;-34.198;22.084;2023-02-19T12:06:19;98786.22;;;21.10;56.26
63708;BME280;67643;-34.198;22.084;2023-02-19T12:09:11;98778.56;;;22.12;52.06
63708;BME280;67643;-34.198;22.084;2023-02-19T12:12:23;98774.36;;;22.27;50.49
63708;BME280;67643;-34.198;22.084;2023-02-19T12:15:09;98770.42;;;23.08;48.52
63708;BME280;67643;-34.198;22.084;2023-02-19T12:17:56;98765.25;;;23.15;48.40
63708;BME280;67643;-34.198;22.084;2023-02-19T12:20:32;98762.80;;;23.12;48.10
63708;BME280;67643;-34.198;22.084;2023-02-19T12:23:29;98760.77;;;23.49;47.96
63708;BME280;67643;-34.198;22.084;2023-02-19T12:26:03;98750.82;;;22.93;48.44
63708;BME280;67643;-34.198;22.084;2023-02-19T12:28:48;98750.64;;;23.13;48.45
63708;BME280;67643;-34.198;22.084;2023-02-19T12:31:33;98746.83;;;22.95;48.45
63708;BME280;67643;-34.198;22.084;2023-02-19T12:34:16;98743.34;;;23.38;47.84
63708;BME280;67643;-34.198;22.084;2023-02-19T12:36:55;98742.24;;;23.15;48.52
63708;BME280;67643;-34.198;22.084;2023-02-19T12:39:33;98727.17;;;23.46;47.76
63708;BME280;67643;-34.198;22.084;2023-02-19T12:42:13;98723.65;;;23.43;47.56
63708;BME280;67643;-34.198;22.084;2023-02-19T12:44:49;98714.69;;;23.74;47.13
63708;BME280;67643;-34.198;22.084;2023-02-19T12:47:23;98714.60;;;23.55;47.42
63708;BME280;67643;-34.198;22.084;2023-02-19T12:50:00;98710.68;;;24.16;47.00
63708;BME280;67643;-34.198;22.084;2023-02-19T12:52:33;98704.85;;;23.73;47.12
63708;BME280;67643;-34.198;22.084;2023-02-19T12:55:12;98698.83;;;23.34;47.56
63708;BME280;67643;-34.198;22.084;2023-02-19T12:57:45;98691.98;;;23.80;47.04
63708;BME280;67643;-34.198;22.084;2023-02-19T13:00:26;98698.88;;;23.83;46.62
63708;BME280;67643;-34.198;22.084;2023-02-19T13:03:01;98697.31;;;23.67;46.84
63708;BME280;67643;-34.198;22.084;2023-02-19T13:05:39;98696.43;;;24.44;45.73
63708;BME280;67643;-34.198;22.084;2023-02-19T13:08:16;98703.70;;;24.58;45.24
63708;BME280;67643;-34.198;22.084;2023-02-19T13:10:52;98702.11;;;24.29;45.74
63708;BME280;67643;-34.198;22.084;2023-02-19T13:13:26;98707.11;;;24.32;45.25
63708;BME280;67643;-34.198;22.084;2023-02-19T13:16:00;98700.10;;;24.34;44.95
63708;BME280;67643;-34.198;22.084;2023-02-19T13:18:34;98700.76;;;24.83;45.14
63708;BME280;67643;-34.198;22.084;2023-02-19T13:21:05;98696.44;;;24.34;45.07
63708;BME280;67643;-34.198;22.084;2023-02-19T13:23:36;98692.62;;;24.78;44.46
63708;BME280;67643;-34.198;22.084;2023-02-19T13:26:21;98684.87;;;24.95;44.08
63708;BME280;67643;-34.198;22.084;2023-02-19T13:29:02;98676.71;;;24.80;43.94
63708;BME280;67643;-34.198;22.084;2023-02-19T13:31:49;98679.33;;;24.94;44.07
63708;BME280;67643;-34.198;22.084;2023-02-19T13:34:32;98672.94;;;24.86;43.10
63708;BME280;67643;-34.198;22.084;2023-02-19T13:37:08;98665.59;;;24.97;42.89
63708;BME280;67643;-34.198;22.084;2023-02-19T13:39:45;98661.99;;;25.29;42.98
63708;BME280;67643;-34.198;22.084;2023-02-19T13:42:24;98660.25;;;25.01;43.30
63708;BME280;67643;-34.198;22.084;2023-02-19T13:44:54;98667.58;;;24.83;43.22
63708;BME280;67643;-34.198;22.084;2023-02-19T13:47:59;98668.61;;;25.03;42.95
63708;BME280;67643;-34.198;22.084;2023-02-19T13:50:30;98667.07;;;25.77;42.09
63708;BME280;67643;-34.198;22.084;2023-02-19T13:53:00;98665.24;;;25.07;42.81
63708;BME280;67643;-34.198;22.084;2023-02-19T13:55:50;98660.90;;;24.98;42.97
63708;BME280;67643;-34.198;22.084;2023-02-19T14:00:50;98666.20;;;25.57;42.76
63708;BME280;67643;-34.198;22.084;2023-02-19T14:03:43;98661.12;;;25.41;42.19
63708;BME280;67643;-34.198;22.084;2023-02-19T14:06:12;98659.39;;;25.66;41.87
63708;BME280;67643;-34.198;22.084;2023-02-19T14:08:52;98656.63;;;25.18;42.16
63708;BME280;67643;-34.198;22.084;2023-02-19T14:12:02;98656.55;;;25.48;41.68
63708;BME280;67643;-34.198;22.084;2023-02-19T14:14:35;98664.45;;;25.63;41.14
63708;BME280;67643;-34.198;22.084;2023-02-19T14:17:24;98668.05;;;25.08;41.57
63708;BME280;67643;-34.198;22.084;2023-02-19T14:19:58;98662.55;;;25.40;41.04
63708;BME280;67643;-34.198;22.084;2023-02-19T14:23:12;98661.21;;;25.49;41.15
63708;BME280;67643;-34.198;22.084;2023-02-19T14:25:47;98659.99;;;25.37;41.76
63708;BME280;67643;-34.198;22.084;2023-02-19T14:28:23;98655.44;;;25.57;41.60
63708;BME280;67643;-34.198;22.084;2023-02-19T14:30:55;98660.07;;;25.13;41.88
63708;BME280;67643;-34.198;22.084;2023-02-19T14:33:27;98655.12;;;24.08;46.45
63708;BME280;67643;-34.198;22.084;2023-02-19T14:36:02;98636.01;;;25.82;41.20
63708;BME280;67643;-34.198;22.084;2023-02-19T14:38:35;98638.30;;;24.86;43.23
63708;BME280;67643;-34.198;22.084;2023-02-19T14:41:06;98634.18;;;25.39;41.59
63708;BME280;67643;-34.198;22.084;2023-02-19T14:43:38;98640.48;;;24.82;42.49
63708;BME280;67643;-34.198;22.084;2023-02-19T14:46:16;98641.43;;;25.35;42.10
63708;BME280;67643;-34.198;22.084;2023-02-19T14:48:48;98646.90;;;25.29;41.67
63708;BME280;67643;-34.198;22.084;2023-02-19T14:51:26;98647.68;;;25.76;41.27
63708;BME280;67643;-34.198;22.084;2023-02-19T14:53:57;98644.86;;;25.45;41.35
63708;BME280;67643;-34.198;22.084;2023-02-19T14:56:32;98639.82;;;25.59;41.40
63708;BME280;67643;-34.198;22.084;2023-02-19T14:59:21;98642.33;;;25.46;41.30
63708;BME280;67643;-34.198;22.084;2023-02-19T15:01:56;98642.73;;;25.73;40.84
63708;BME280;67643;-34.198;22.084;2023-02-19T15:04:27;98638.68;;;25.68;40.77
63708;BME280;67643;-34.198;22.084;2023-02-19T15:06:58;98642.95;;;25.35;41.37
63708;BME280;67643;-34.198;22.084;2023-02-19T15:09:32;98637.37;;;25.80;41.35
63708;BME280;67643;-34.198;22.084;2023-02-19T15:12:04;98638.99;;;25.27;41.93
63708;BME280;67643;-34.198;22.084;2023-02-19T15:14:33;98641.68;;;25.29;41.69
63708;BME280;67643;-34.198;22.084;2023-02-19T15:17:04;98628.52;;;24.70;42.80
63708;BME280;67643;-34.198;22.084;2023-02-19T15:19:35;98630.54;;;25.25;41.87
63708;BME280;67643;-34.198;22.084;2023-02-19T15:22:03;98634.84;;;25.04;42.26
63708;BME280;67643;-34.198;22.084;2023-02-19T15:24:32;98631.86;;;25.72;41.44
63708;BME280;67643;-34.198;22.084;2023-02-19T15:27:01;98631.63;;;26.17;41.24
63708;BME280;67643;-34.198;22.084;2023-02-19T15:29:30;98637.87;;;24.68;43.07
63708;BME280;67643;-34.198;22.084;2023-02-19T15:32:00;98643.55;;;24.85;43.03
63708;BME280;67643;-34.198;22.084;2023-02-19T15:34:30;98644.81;;;24.90;42.98
63708;BME280;67643;-34.198;22.084;2023-02-19T15:37:00;98645.55;;;24.48;43.62
63708;BME280;67643;-34.198;22.084;2023-02-19T15:39:34;98641.60;;;23.63;44.79
63708;BME280;67643;-34.198;22.084;2023-02-19T15:42:07;98639.66;;;24.14;43.94
63708;BME280;67643;-34.198;22.084;2023-02-19T15:44:42;98636.49;;;23.79;44.57
63708;BME280;67643;-34.198;22.084;2023-02-19T15:47:19;98636.96;;;23.81;44.48
63708;BME280;67643;-34.198;22.084;2023-02-19T15:49:53;98644.29;;;24.13;44.35
63708;BME280;67643;-34.198;22.084;2023-02-19T15:52:31;98644.99;;;24.08;44.39
63708;BME280;67643;-34.198;22.084;2023-02-19T15:55:07;98643.34;;;23.98;44.14
63708;BME280;67643;-34.198;22.084;2023-02-19T15:57:45;98637.92;;;24.02;44.30
63708;BME280;67643;-34.198;22.084;2023-02-19T16:00:18;98638.54;;;24.72;43.42
63708;BME280;67643;-34.198;22.084;2023-02-19T16:02:48;98639.01;;;25.52;42.42
63708;BME280;67643;-34.198;22.084;2023-02-19T16:05:24;98638.11;;;24.74;43.55
63708;BME280;67643;-34.198;22.084;2023-02-19T16:08:33;98641.85;;;23.82;43.78
63708;BME280;67643;-34.198;22.084;2023-02-19T16:11:04;98643.65;;;25.03;43.02
63708;BME280;67643;-34.198;22.084;2023-02-19T16:13:33;98643.61;;;24.26;43.61
63708;BME280;67643;-34.198;22.084;2023-02-19T16:16:11;98644.93;;;24.58;43.64
63708;BME280;67643;-34.198;22.084;2023-02-19T16:18:45;98643.44;;;24.15;43.81
63708;BME280;67643;-34.198;22.084;2023-02-19T16:21:16;98640.88;;;23.94;44.42
63708;BME280;67643;-34.198;22.084;2023-02-19T16:23:50;98643.08;;;24.72;43.38
63708;BME280;67643;-34.198;22.084;2023-02-19T16:26:20;98642.47;;;24.60;43.34
63708;BME280;67643;-34.198;22.084;2023-02-19T16:28:51;98637.55;;;23.76;44.59
63708;BME280;67643;-34.198;22.084;2023-02-19T16:31:21;98641.16;;;24.41;43.80
63708;BME280;67643;-34.198;22.084;2023-02-19T16:33:51;98642.96;;;24.09;44.39
63708;BME280;67643;-34.198;22.084;2023-02-19T16:36:23;98650.88;;;24.33;44.05
63708;BME280;67643;-34.198;22.084;2023-02-19T16:39:24;98656.11;;;24.62;44.39
63708;BME280;67643;-34.198;22.084;2023-02-19T16:42:12;98660.35;;;24.16;44.59
63708;BME280;67643;-34.198;22.084;2023-02-19T16:44:41;98667.66;;;24.40;44.22
63708;BME280;67643;-34.198;22.084;2023-02-19T16:47:19;98661.28;;;24.61;44.31
63708;BME280;67643;-34.198;22.084;2023-02-19T16:49:51;98661.12;;;24.48;44.23
63708;BME280;67643;-34.198;22.084;2023-02-19T16:52:19;98658.76;;;24.32;44.47
63708;BME280;67643;-34.198;22.084;2023-02-19T16:54:48;98666.78;;;24.59;44.17
63708;BME280;67643;-34.198;22.084;2023-02-19T16:57:17;98674.26;;;23.86;45.36
63708;BME280;67643;-34.198;22.084;2023-02-19T16:59:47;98680.65;;;24.78;43.93
63708;BME280;67643;-34.198;22.084;2023-02-19T17:02:19;98683.16;;;24.73;44.15
63708;BME280;67643;-34.198;22.084;2023-02-19T17:04:49;98685.77;;;24.78;44.20
63708;BME280;67643;-34.198;22.084;2023-02-19T17:07:18;98690.93;;;24.92;44.07
63708;BME280;67643;-34.198;22.084;2023-02-19T17:09:47;98693.15;;;24.80;44.76
63708;BME280;67643;-34.198;22.084;2023-02-19T17:12:16;98693.34;;;24.39;44.92
63708;BME280;67643;-34.198;22.084;2023-02-19T17:14:45;98690.95;;;24.30;45.12
63708;BME280;67643;-34.198;22.084;2023-02-19T17:17:13;98690.04;;;24.90;44.57
63708;BME280;67643;-34.198;22.084;2023-02-19T17:19:41;98691.58;;;24.63;44.63
63708;BME280;67643;-34.198;22.084;2023-02-19T17:22:10;98687.43;;;24.36;45.08
63708;BME280;67643;-34.198;22.084;2023-02-19T17:24:38;98689.92;;;24.59;44.94
63708;BME280;67643;-34.198;22.084;2023-02-19T17:27:09;98692.53;;;23.73;45.12
63708;BME280;67643;-34.198;22.084;2023-02-19T17:29:38;98687.81;;;22.95;47.02
63708;BME280;67643;-34.198;22.084;2023-02-19T17:32:06;98687.80;;;23.64;45.23
63708;BME280;67643;-34.198;22.084;2023-02-19T17:34:34;98689.11;;;23.70;45.47
63708;BME280;67643;-34.198;22.084;2023-02-19T17:37:03;98687.01;;;23.81;44.78